This is the latest recevied weather packets stored in our database for station/object NM5PB. If no packets are shown the sender has not sent any weather packets the latest 10 day(s).
| Time | Temp. | Humidity | Pressure | Rain* | Wind** | Luminosity | Snow |
|---|---|---|---|---|---|---|---|
| 1777672264 | 12.78° C | 50% | - | 0 mm | - | - | - |
| 1777671664 | 11.67° C | 54% | - | 0 mm | - | - | - |
| 1777671064 | 11.11° C | 54% | - | 0 mm | - | - | - |
| 1777670464 | 11.67° C | 55% | - | 0 mm | - | - | - |
| 1777669864 | 11.67° C | 52% | - | 0 mm | - | - | - |
| 1777669264 | 11.67° C | 51% | - | 0 mm | - | - | - |
| 1777668664 | 12.22° C | 52% | - | 0 mm | - | - | - |
| 1777668064 | 12.22° C | 52% | - | 0 mm | - | - | - |
| 1777667464 | 13.33° C | 49% | - | 0 mm | - | - | - |
| 1777666864 | 12.78° C | 52% | - | 0 mm | - | - | - |
| 1777666264 | 12.22° C | 51% | - | 0 mm | - | - | - |
| 1777665664 | 11.11° C | 56% | - | 0 mm | - | - | - |
| 1777665064 | 10.56° C | 56% | - | 0 mm | - | - | - |
| 1777664464 | 10.56° C | 57% | - | 0 mm | - | - | - |
| 1777663864 | 10.56° C | 60% | - | 0 mm | - | - | - |
| 1777663264 | 10.56° C | 61% | - | 0 mm | - | - | - |
| 1777662664 | 11.11° C | 56% | - | 0 mm | - | - | - |
| 1777662064 | 10.56° C | 56% | - | 0 mm | - | - | - |
| 1777661464 | 11.11° C | 55% | - | 0 mm | - | - | - |
| 1777660864 | 11.11° C | 58% | - | 0 mm | - | - | - |
| 1777660264 | 11.67° C | 56% | - | 0 mm | - | - | - |
| 1777659664 | 11.67° C | 55% | - | 0 mm | - | - | - |
| 1777659064 | 11.67° C | 54% | - | 0 mm | - | - | - |
| 1777658464 | 11.67° C | 55% | - | 0 mm | - | - | - |
| 1777657864 | 11.67° C | 57% | - | 0 mm | - | - | - |
* Rain latest hour (hover to see other rain measurements)
** Current wind speed in m/s (hover to see current wind gust speed)